createdAt,value
2022-11-25T00:00:20.927Z,99934.72
2022-11-25T00:05:22.312Z,99941.00
2022-11-25T00:10:23.685Z,99932.84
2022-11-25T00:15:25.064Z,99931.25
2022-11-25T00:20:26.437Z,99928.91
2022-11-25T00:25:27.835Z,99936.25
2022-11-25T00:30:29.361Z,99932.47
2022-11-25T00:35:30.729Z,99942.53
2022-11-25T00:40:32.100Z,99940.06
2022-11-25T00:45:33.569Z,99942.16
2022-11-25T00:50:35.083Z,99949.50
2022-11-25T00:55:56.475Z,99945.72
2022-11-25T01:01:01.763Z,99949.03
2022-11-25T01:06:04.231Z,99951.28
2022-11-25T01:11:07.931Z,99944.78
2022-11-25T01:16:11.746Z,99946.94
2022-11-25T01:21:17.463Z,99947.16
2022-11-25T01:26:20.444Z,99948.34
2022-11-25T01:31:22.560Z,99947.16
2022-11-25T01:36:23.980Z,99951.75
2022-11-25T01:41:29.514Z,99954.47
2022-11-25T01:46:35.283Z,99949.03
2022-11-25T01:51:50.856Z,99934.81
2022-11-25T01:56:56.135Z,99945.84
2022-11-25T02:01:57.517Z,99943.47
2022-11-25T02:07:02.011Z,99950.72
2022-11-25T02:12:03.481Z,99943.59
2022-11-25T02:17:04.866Z,99945.34
2022-11-25T02:22:06.720Z,99950.94
2022-11-25T02:27:08.103Z,99949.88
2022-11-25T02:32:09.495Z,99941.94
2022-11-25T02:37:10.911Z,99936.72
2022-11-25T02:42:12.286Z,99938.97
2022-11-25T02:47:13.659Z,99940.06
2022-11-25T02:52:15.144Z,99940.84
2022-11-25T02:57:16.536Z,99938.88
2022-11-25T03:02:17.983Z,99936.88
2022-11-25T03:07:19.430Z,99942.53
2022-11-25T03:12:21.011Z,99937.09
2022-11-25T03:17:22.404Z,99942.16
2022-11-25T03:22:23.779Z,99941.09
2022-11-25T03:27:27.994Z,99941.31
2022-11-25T03:32:31.699Z,99939.09
2022-11-25T03:37:33.063Z,99948.91
2022-11-25T03:42:34.455Z,99955.19
2022-11-25T03:47:35.827Z,99960.06
2022-11-25T03:52:37.232Z,99955.56
2022-11-25T03:57:38.620Z,99958.75
2022-11-25T04:02:40.042Z,99962.91
2022-11-25T04:07:41.500Z,99966.22
2022-11-25T04:12:49.057Z,99960.41
2022-11-25T04:17:50.434Z,99965.84
2022-11-25T04:22:51.803Z,99968.47
2022-11-25T04:27:53.194Z,99968.94
2022-11-25T04:32:54.575Z,99974.41
2022-11-25T04:37:55.932Z,99981.50
2022-11-25T04:43:03.461Z,99970.25
2022-11-25T04:48:07.534Z,99969.66
2022-11-25T04:53:08.935Z,99979.47
2022-11-25T04:58:11.161Z,99981.84
2022-11-25T05:03:12.520Z,99983.28
2022-11-25T05:08:13.880Z,99977.38
2022-11-25T05:13:15.250Z,99977.81
2022-11-25T05:18:16.640Z,99975.81
2022-11-25T05:23:18.013Z,99971.28
2022-11-25T05:28:19.371Z,99969.66
2022-11-25T05:33:20.904Z,99966.09
2022-11-25T05:38:22.268Z,99975.09
2022-11-25T05:43:23.630Z,99971.53
2022-11-25T05:48:25.196Z,99978.88
2022-11-25T05:53:26.736Z,99991.44
2022-11-25T05:58:28.615Z,99995.59
2022-11-25T06:03:30.198Z,99988.38
2022-11-25T06:08:31.600Z,99986.00
2022-11-25T06:13:34.155Z,99983.28
2022-11-25T06:18:36.395Z,99996.66
2022-11-25T06:23:37.969Z,99996.22
2022-11-25T06:28:39.383Z,99993.66
2022-11-25T06:33:40.924Z,100004.56
2022-11-25T06:38:45.755Z,100004.91
2022-11-25T06:43:47.116Z,100005.28
2022-11-25T06:48:48.500Z,100013.38
2022-11-25T06:53:49.895Z,100012.53
2022-11-25T06:58:51.686Z,100018.09
2022-11-25T07:03:58.775Z,100026.66
2022-11-25T07:09:00.187Z,100023.69
2022-11-25T07:14:03.026Z,100038.44
2022-11-25T07:19:04.392Z,100041.66
2022-11-25T07:24:06.889Z,100049.94
2022-11-25T07:29:29.318Z,100042.91
2022-11-25T07:34:31.749Z,100052.66
2022-11-25T07:39:33.140Z,100051.47
2022-11-25T07:44:34.545Z,100060.94
2022-11-25T07:49:36.146Z,100058.84
2022-11-25T07:54:37.765Z,100049.09
2022-11-25T07:59:41.210Z,100046.75
2022-11-25T08:04:42.575Z,100052.94
2022-11-25T08:09:43.951Z,100060.75
2022-11-25T08:14:48.353Z,100063.84
2022-11-25T08:19:49.835Z,100060.28
2022-11-25T08:24:51.204Z,100058.88
2022-11-25T08:29:52.567Z,100066.78
2022-11-25T08:34:53.931Z,100066.91
2022-11-25T08:39:56.026Z,100073.56
2022-11-25T08:44:57.707Z,100064.91
2022-11-25T08:49:59.063Z,100072.25
2022-11-25T08:55:01.001Z,100072.03
2022-11-25T09:00:03.493Z,100066.59
2022-11-25T09:05:05.120Z,100069.88
2022-11-25T09:10:08.324Z,100078.19
2022-11-25T09:15:10.416Z,100080.69
2022-11-25T09:20:12.114Z,100091.47
2022-11-25T09:25:13.495Z,100081.97
2022-11-25T09:30:14.998Z,100067.16
2022-11-25T09:35:16.839Z,100080.69
2022-11-25T09:40:35.212Z,100079.41
2022-11-25T09:46:15.285Z,100079.88
2022-11-25T09:51:24.838Z,100073.94
2022-11-25T09:56:33.568Z,100069.31
2022-11-25T10:01:38.567Z,100075.09
2022-11-25T10:06:55.490Z,100069.66
2022-11-25T10:12:00.446Z,100072.16
2022-11-25T10:17:20.487Z,100064.56
2022-11-25T10:22:26.675Z,100067.41
2022-11-25T10:27:46.067Z,100066.44
2022-11-25T10:33:11.597Z,100062.41
2022-11-25T10:38:18.934Z,100057.66
2022-11-25T10:43:20.807Z,100056.63
2022-11-25T10:48:40.000Z,100058.50
2022-11-25T10:54:10.677Z,100053.28
2022-11-25T10:59:23.138Z,100053.06
2022-11-25T11:04:24.520Z,100053.63
2022-11-25T11:09:35.715Z,100044.97
2022-11-25T11:14:37.397Z,100041.66
2022-11-25T11:19:38.955Z,100038.94
2022-11-25T11:24:42.357Z,100033.13
2022-11-25T11:29:43.722Z,100045.94
2022-11-25T11:34:50.745Z,100034.31
2022-11-25T11:40:38.427Z,100033.47
2022-11-25T11:45:49.030Z,100039.31
2022-11-25T11:50:51.072Z,100039.41
2022-11-25T11:56:35.940Z,100037.16
2022-11-25T12:02:00.361Z,100032.66
2022-11-25T12:07:06.161Z,100030.66
2022-11-25T12:12:09.271Z,100035.13
2022-11-25T12:17:17.788Z,100029.56
2022-11-25T12:22:23.555Z,100037.75
2022-11-25T12:27:34.961Z,100029.56
2022-11-25T12:32:59.897Z,100022.94
2022-11-25T12:38:04.208Z,100016.50
2022-11-25T12:43:28.664Z,100018.06
2022-11-25T12:48:30.043Z,100015.78
2022-11-25T12:53:35.633Z,100017.09
2022-11-25T12:58:53.330Z,100025.97
2022-11-25T13:04:23.343Z,100037.38
2022-11-25T13:09:46.556Z,100028.03
2022-11-25T13:15:19.240Z,100039.53
2022-11-25T13:20:23.746Z,100046.28
2022-11-25T13:25:25.788Z,100053.91
2022-11-25T13:30:33.324Z,100057.44
2022-11-25T13:35:35.572Z,100061.94
2022-11-25T13:40:38.392Z,100098.03
2022-11-25T13:45:42.878Z,100069.78
2022-11-25T13:51:11.941Z,100069.44
2022-11-25T13:56:21.929Z,100068.50
2022-11-25T14:01:29.510Z,100065.28
2022-11-25T14:06:39.929Z,100069.88
2022-11-25T14:11:59.855Z,100067.72
2022-11-25T14:17:04.526Z,100070.94
2022-11-25T14:22:32.859Z,100078.53
2022-11-25T14:27:34.288Z,100086.13
2022-11-25T14:32:57.513Z,100086.88
2022-11-25T14:38:12.764Z,100102.28
2022-11-25T14:43:22.552Z,100112.13
2022-11-25T14:48:25.841Z,100122.06
2022-11-25T14:53:27.812Z,100126.69
2022-11-25T14:58:29.283Z,100125.03
2022-11-25T15:03:30.728Z,100140.09
2022-11-25T15:08:58.157Z,100134.50
2022-11-25T15:14:01.823Z,100133.06
2022-11-25T15:19:04.811Z,100134.94
2022-11-25T15:24:06.423Z,100141.69
2022-11-25T15:29:12.002Z,100147.16
2022-11-25T15:34:13.989Z,100150.72
2022-11-25T15:39:21.680Z,100156.41
2022-11-25T15:44:27.572Z,100180.09
2022-11-25T15:49:29.942Z,100170.50
2022-11-25T15:54:32.969Z,100171.56
2022-11-25T15:59:55.434Z,100177.25
2022-11-25T16:05:16.489Z,100168.00
2022-11-25T16:10:56.402Z,100177.25
2022-11-25T16:16:01.782Z,100186.47
2022-11-25T16:21:05.035Z,100202.13
2022-11-25T16:26:12.315Z,100203.66
2022-11-25T16:31:15.495Z,100204.72
2022-11-25T16:36:16.943Z,100201.16
2022-11-25T16:41:24.189Z,100210.75
2022-11-25T16:46:25.760Z,100206.59
2022-11-25T16:51:27.294Z,100208.75
2022-11-25T16:56:28.663Z,100203.28
2022-11-25T17:01:30.154Z,100216.31
2022-11-25T17:06:31.715Z,100211.31
2022-11-25T17:11:35.363Z,100212.16
2022-11-25T17:16:36.754Z,100222.22
2022-11-25T17:21:38.152Z,100213.06
2022-11-25T17:26:40.281Z,100221.69
2022-11-25T17:31:41.723Z,100227.50
2022-11-25T17:36:43.688Z,100234.63
2022-11-25T17:41:46.288Z,100244.94
2022-11-25T17:46:47.673Z,100240.31
2022-11-25T17:51:49.096Z,100244.56
2022-11-25T17:56:52.582Z,100244.94
2022-11-25T18:01:55.899Z,100248.97
2022-11-25T18:06:57.541Z,100257.28
2022-11-25T18:11:59.523Z,100262.94
2022-11-25T18:17:02.021Z,100271.94
2022-11-25T18:22:17.958Z,100278.47
2022-11-25T18:27:20.801Z,100278.94
2022-11-25T18:32:23.321Z,100279.28
2022-11-25T18:37:25.123Z,100279.28
2022-11-25T18:42:26.941Z,100289.75
2022-11-25T18:47:28.360Z,100298.16
2022-11-25T18:52:29.762Z,100300.88
2022-11-25T18:57:31.139Z,100299.59
2022-11-25T19:02:32.600Z,100312.38
2022-11-25T19:07:34.074Z,100320.84
2022-11-25T19:12:35.524Z,100326.00
2022-11-25T19:17:37.031Z,100326.25
2022-11-25T19:22:38.402Z,100331.91
2022-11-25T19:27:42.554Z,100335.47
2022-11-25T19:32:44.897Z,100335.09
2022-11-25T19:37:46.271Z,100338.88
2022-11-25T19:42:48.451Z,100346.81
2022-11-25T19:47:50.413Z,100356.44
2022-11-25T19:52:51.844Z,100361.88
2022-11-25T19:57:54.361Z,100371.94
2022-11-25T20:02:56.148Z,100372.78
2022-11-25T20:07:57.615Z,100379.31
2022-11-25T20:12:59.132Z,100380.13
2022-11-25T20:18:00.634Z,100388.69
2022-11-25T20:23:16.559Z,100392.13
2022-11-25T20:28:19.657Z,100403.22
2022-11-25T20:33:24.252Z,100410.59
2022-11-25T20:38:27.548Z,100420.66
2022-11-25T20:43:33.310Z,100421.84
2022-11-25T20:48:37.276Z,100431.16
2022-11-25T20:53:38.684Z,100435.16
2022-11-25T20:58:40.063Z,100431.75
2022-11-25T21:03:42.497Z,100438.72
2022-11-25T21:08:45.244Z,100440.81
2022-11-25T21:13:46.817Z,100455.25
2022-11-25T21:18:48.207Z,100449.19
2022-11-25T21:23:49.632Z,100460.00
2022-11-25T21:28:51.844Z,100468.03
2022-11-25T21:33:55.939Z,100474.09
2022-11-25T21:39:02.055Z,100481.44
2022-11-25T21:44:04.339Z,100488.56
2022-11-25T21:49:10.492Z,100490.44
2022-11-25T21:54:11.868Z,100493.59
2022-11-25T21:59:17.236Z,100498.59
2022-11-25T22:04:20.360Z,100514.16
2022-11-25T22:09:22.084Z,100511.19
2022-11-25T22:14:29.559Z,100515.19
2022-11-25T22:19:30.928Z,100519.38
2022-11-25T22:24:32.312Z,100514.59
2022-11-25T22:29:34.495Z,100531.75
2022-11-25T22:34:36.125Z,100526.31
2022-11-25T22:39:37.716Z,100547.91
2022-11-25T22:44:46.639Z,100547.06
2022-11-25T22:49:48.231Z,100549.19
2022-11-25T22:54:49.805Z,100550.63
2022-11-25T22:59:51.182Z,100557.75
2022-11-25T23:04:53.520Z,100565.31
2022-11-25T23:09:56.482Z,100557.97
2022-11-25T23:14:57.907Z,100574.13
2022-11-25T23:19:59.267Z,100568.69
2022-11-25T23:25:00.647Z,100566.16
2022-11-25T23:30:02.040Z,100569.09
2022-11-25T23:35:03.488Z,100568.03
2022-11-25T23:40:05.332Z,100569.31
2022-11-25T23:45:07.411Z,100574.31
2022-11-25T23:50:23.778Z,100578.53
2022-11-25T23:55:27.476Z,100583.19
